Time;durP1;ratioP1;P1;durP2;ratioP2;P2;SDS_P1;SDS_P2;PMS_P1;PMS_P2;Temp;Humidity;BMP_temperature;BMP_pressure;BME280_temperature;BME280_humidity;BME280_pressure;Samples;Min_cycle;Max_cycle;Signal;HPM_P1;HPM_P2
2023/11/14 00:01:22;;;;;;;7.87;2.43;;;;;;;;;;5114280;28;20450;-60
2023/11/14 00:03:49;;;;;;;6.77;2.40;;;;;;;;;;5114482;28;20790;-60
2023/11/14 00:06:18;;;;;;;5.60;3.10;;;;;;;;;;5114355;28;20499;-60
2023/11/14 00:08:45;;;;;;;4.77;2.40;;;;;;;;;;5114322;28;20540;-60
2023/11/14 00:11:12;;;;;;;6.10;2.90;;;;;;;;;;5114217;28;20831;-60
2023/11/14 00:13:39;;;;;;;10.27;3.70;;;;;;;;;;5114118;28;20532;-60
2023/11/14 00:16:06;;;;;;;4.17;2.70;;;;;;;;;;5114468;28;20481;-60
2023/11/14 00:18:33;;;;;;;8.03;3.40;;;;;;;;;;5114173;28;20480;-60
2023/11/14 00:21:00;;;;;;;5.27;2.50;;;;;;;;;;5114070;28;20537;-60
2023/11/14 00:23:28;;;;;;;6.37;2.03;;;;;;;;;;5113997;28;20549;-60
2023/11/14 00:25:55;;;;;;;5.10;2.20;;;;;;;;;;5113857;28;20481;-59
2023/11/14 00:28:22;;;;;;;5.93;2.20;;;;;;;;;;5113737;28;20448;-60
2023/11/14 00:30:48;;;;;;;10.40;3.60;;;;;;;;;;5114034;28;21020;-60
2023/11/14 00:33:15;;;;;;;7.63;2.83;;;;;;;;;;5113907;28;20442;-60
2023/11/14 00:35:43;;;;;;;9.10;2.57;;;;;;;;;;5113879;28;20452;-60
2023/11/14 00:38:10;;;;;;;8.30;2.33;;;;;;;;;;5113784;28;20477;-60
2023/11/14 00:40:39;;;;;;;10.63;2.47;;;;;;;;;;5113664;28;20450;-60
2023/11/14 00:43:05;;;;;;;6.17;2.17;;;;;;;;;;5113344;28;20481;-59
2023/11/14 00:45:32;;;;;;;5.40;3.23;;;;;;;;;;5113742;28;20487;-60
2023/11/14 00:47:59;;;;;;;11.10;3.10;;;;;;;;;;5113688;28;20528;-60
2023/11/14 00:50:26;;;;;;;7.57;2.07;;;;;;;;;;5113637;28;20441;-60
2023/11/14 00:52:53;;;;;;;6.93;2.27;;;;;;;;;;5113659;28;20448;-60
2023/11/14 00:55:20;;;;;;;10.93;2.70;;;;;;;;;;5113428;28;20533;-60
2023/11/14 00:57:48;;;;;;;7.97;2.20;;;;;;;;;;5113070;28;20449;-60
2023/11/14 01:00:17;;;;;;;7.83;2.20;;;;;;;;;;5113664;28;20442;-60
2023/11/14 01:02:45;;;;;;;7.83;2.60;;;;;;;;;;5113507;28;20450;-60
2023/11/14 01:05:12;;;;;;;4.57;2.13;;;;;;;;;;5113406;28;21045;-60
2023/11/14 01:07:39;;;;;;;7.00;2.90;;;;;;;;;;5113312;28;20442;-60
2023/11/14 01:10:07;;;;;;;10.23;2.80;;;;;;;;;;5113246;28;20545;-59
2023/11/14 01:12:34;;;;;;;11.80;2.50;;;;;;;;;;5113489;28;20442;-60
2023/11/14 01:15:03;;;;;;;4.13;2.30;;;;;;;;;;5113440;28;20446;-60
2023/11/14 01:17:30;;;;;;;7.10;2.07;;;;;;;;;;5113307;28;20437;-60
2023/11/14 01:19:57;;;;;;;8.37;2.80;;;;;;;;;;5113389;28;20878;-60
2023/11/14 01:22:24;;;;;;;8.53;2.47;;;;;;;;;;5113208;28;20438;-60
2023/11/14 01:24:51;;;;;;;6.80;2.10;;;;;;;;;;5113103;28;20567;-59
2023/11/14 01:27:18;;;;;;;13.53;3.30;;;;;;;;;;5113339;28;20442;-60
2023/11/14 01:29:46;;;;;;;14.90;2.77;;;;;;;;;;5113108;28;20937;-60
2023/11/14 01:32:14;;;;;;;13.20;2.33;;;;;;;;;;5113178;28;20453;-60
2023/11/14 01:34:41;;;;;;;10.90;3.33;;;;;;;;;;5113216;28;20534;-59
2023/11/14 01:37:09;;;;;;;6.90;2.90;;;;;;;;;;5113093;28;20544;-60
2023/11/14 01:39:36;;;;;;;7.83;2.40;;;;;;;;;;5113209;28;20448;-60
2023/11/14 01:42:03;;;;;;;4.97;2.00;;;;;;;;;;5113301;28;20607;-59
2023/11/14 01:44:30;;;;;;;5.70;2.80;;;;;;;;;;5112760;28;20487;-60
2023/11/14 01:46:57;;;;;;;5.97;2.13;;;;;;;;;;5112972;28;20457;-60
2023/11/14 01:49:25;;;;;;;10.97;2.83;;;;;;;;;;5112973;28;20533;-60
2023/11/14 01:51:53;;;;;;;12.40;3.23;;;;;;;;;;5112998;28;20448;-60
2023/11/14 01:54:20;;;;;;;8.30;2.67;;;;;;;;;;5113101;28;20448;-60
2023/11/14 01:56:47;;;;;;;9.00;2.70;;;;;;;;;;5113077;28;20445;-60
2023/11/14 01:59:15;;;;;;;6.83;3.23;;;;;;;;;;5112994;28;20446;-60
2023/11/14 02:01:41;;;;;;;11.90;4.03;;;;;;;;;;5112942;28;20448;-60
2023/11/14 02:04:10;;;;;;;16.67;3.47;;;;;;;;;;5112792;28;20954;-60
2023/11/14 02:06:38;;;;;;;8.73;2.90;;;;;;;;;;5113015;28;20453;-60
2023/11/14 02:09:07;;;;;;;9.80;3.37;;;;;;;;;;5112889;28;20442;-60
2023/11/14 02:11:34;;;;;;;9.63;3.60;;;;;;;;;;5116581;28;20490;-59
2023/11/14 02:14:01;;;;;;;8.80;2.90;;;;;;;;;;5116575;28;20528;-60
2023/11/14 02:16:28;;;;;;;6.23;3.07;;;;;;;;;;5116396;28;20540;-60
2023/11/14 02:18:55;;;;;;;9.27;2.53;;;;;;;;;;5116282;28;20444;-60
2023/11/14 02:21:22;;;;;;;9.53;3.47;;;;;;;;;;5116537;28;20469;-60
2023/11/14 02:23:53;;;;;;;9.60;3.07;;;;;;;;;;5116613;28;20536;-60
2023/11/14 02:26:22;;;;;;;11.33;3.10;;;;;;;;;;5116219;28;20481;-60
2023/11/14 02:28:49;;;;;;;13.33;3.57;;;;;;;;;;5116106;28;20537;-59
2023/11/14 02:31:17;;;;;;;8.57;2.97;;;;;;;;;;5115998;28;20453;-60
2023/11/14 02:33:45;;;;;;;12.27;3.30;;;;;;;;;;5116216;28;20470;-60
2023/11/14 02:36:12;;;;;;;7.10;3.20;;;;;;;;;;5116110;28;20850;-60
2023/11/14 02:38:39;;;;;;;12.40;3.50;;;;;;;;;;5116032;28;20442;-60
2023/11/14 02:41:06;;;;;;;9.67;2.90;;;;;;;;;;5115991;28;20441;-60
2023/11/14 02:43:34;;;;;;;14.80;2.67;;;;;;;;;;5115744;28;20466;-60
2023/11/14 02:46:01;;;;;;;10.70;3.23;;;;;;;;;;5115801;28;20489;-60
2023/11/14 02:48:28;;;;;;;12.53;3.70;;;;;;;;;;5115649;28;20533;-60
2023/11/14 02:50:56;;;;;;;15.63;4.00;;;;;;;;;;5115898;28;20532;-60
2023/11/14 02:53:23;;;;;;;11.07;3.57;;;;;;;;;;5115776;28;20469;-60
2023/11/14 02:55:50;;;;;;;6.30;2.60;;;;;;;;;;5115667;28;20540;-60
2023/11/14 02:58:18;;;;;;;5.93;3.13;;;;;;;;;;5115504;28;20548;-60
2023/11/14 03:00:48;;;;;;;7.57;2.73;;;;;;;;;;5115795;28;20448;-60
2023/11/14 03:03:15;;;;;;;6.90;2.87;;;;;;;;;;5115690;28;20469;-60
2023/11/14 03:05:42;;;;;;;8.67;3.03;;;;;;;;;;5115466;28;20478;-59
2023/11/14 03:08:09;;;;;;;6.33;2.60;;;;;;;;;;5115431;28;20448;-60
2023/11/14 03:10:36;;;;;;;7.50;3.23;;;;;;;;;;5115367;28;20449;-60
2023/11/14 03:13:04;;;;;;;9.43;4.07;;;;;;;;;;5115180;28;20448;-60
2023/11/14 03:15:31;;;;;;;15.20;3.43;;;;;;;;;;5115216;28;20991;-60
2023/11/14 03:18:00;;;;;;;7.40;2.57;;;;;;;;;;5115256;28;20446;-60
2023/11/14 03:20:27;;;;;;;14.27;3.70;;;;;;;;;;5114831;28;20525;-60
2023/11/14 03:22:54;;;;;;;14.83;3.67;;;;;;;;;;5115194;28;20442;-60
2023/11/14 03:25:21;;;;;;;15.03;3.70;;;;;;;;;;5114930;28;20980;-60
2023/11/14 03:27:49;;;;;;;11.83;3.30;;;;;;;;;;5115158;28;20445;-59
2023/11/14 03:30:16;;;;;;;10.30;2.87;;;;;;;;;;5115129;28;20464;-60
2023/11/14 03:32:43;;;;;;;6.23;3.13;;;;;;;;;;5115025;28;20445;-60
2023/11/14 03:35:11;;;;;;;9.63;3.27;;;;;;;;;;5114758;28;20932;-60
2023/11/14 03:37:38;;;;;;;6.83;2.50;;;;;;;;;;5114766;28;20449;-60
2023/11/14 03:40:06;;;;;;;5.97;2.40;;;;;;;;;;5114695;28;20445;-59
2023/11/14 03:42:34;;;;;;;7.67;2.80;;;;;;;;;;5114958;28;20477;-60
2023/11/14 03:45:00;;;;;;;13.83;3.00;;;;;;;;;;5114432;28;20480;-60
2023/11/14 03:47:27;;;;;;;7.40;2.23;;;;;;;;;;5114721;28;20834;-60
2023/11/14 03:49:54;;;;;;;9.13;2.70;;;;;;;;;;5114663;28;20438;-59
2023/11/14 03:52:22;;;;;;;7.80;2.30;;;;;;;;;;5114405;28;20992;-60
2023/11/14 03:54:49;;;;;;;12.33;3.63;;;;;;;;;;5114397;28;20441;-60
2023/11/14 03:57:16;;;;;;;8.13;2.43;;;;;;;;;;5114505;28;20444;-59
2023/11/14 03:59:44;;;;;;;10.30;2.63;;;;;;;;;;5114518;28;20835;-60
2023/11/14 04:02:11;;;;;;;13.77;3.50;;;;;;;;;;5114403;28;20445;-60
2023/11/14 04:04:39;;;;;;;7.23;2.70;;;;;;;;;;5114320;28;20446;-60
2023/11/14 04:07:06;;;;;;;8.47;2.30;;;;;;;;;;5114056;28;20481;-60
2023/11/14 04:09:34;;;;;;;9.90;2.20;;;;;;;;;;5114400;28;20454;-60
2023/11/14 04:12:02;;;;;;;12.37;3.47;;;;;;;;;;5114273;28;20529;-60
2023/11/14 04:14:29;;;;;;;16.47;2.50;;;;;;;;;;5114164;28;20437;-60
2023/11/14 04:16:56;;;;;;;11.53;3.43;;;;;;;;;;5113921;28;20528;-60
2023/11/14 04:19:24;;;;;;;6.60;3.00;;;;;;;;;;5113868;28;20446;-60
2023/11/14 04:21:50;;;;;;;7.77;2.80;;;;;;;;;;5113704;28;20441;-60
2023/11/14 04:24:17;;;;;;;6.80;2.07;;;;;;;;;;5114018;28;20525;-60
2023/11/14 04:26:46;;;;;;;8.77;2.67;;;;;;;;;;5113750;28;20538;-59
2023/11/14 04:29:13;;;;;;;9.70;2.57;;;;;;;;;;5113700;28;20457;-60
2023/11/14 04:31:40;;;;;;;6.83;2.33;;;;;;;;;;5113369;28;20496;-60
2023/11/14 04:34:07;;;;;;;13.53;2.83;;;;;;;;;;5113154;28;20924;-60
2023/11/14 04:36:35;;;;;;;7.97;3.03;;;;;;;;;;5113519;28;20528;-59
2023/11/14 04:39:02;;;;;;;10.70;2.47;;;;;;;;;;5113679;28;20800;-59
2023/11/14 04:41:29;;;;;;;11.63;2.20;;;;;;;;;;5113613;28;20529;-59
2023/11/14 04:43:57;;;;;;;9.23;2.60;;;;;;;;;;5113374;28;20480;-59
2023/11/14 04:46:24;;;;;;;8.70;2.67;;;;;;;;;;5113570;28;20485;-59
2023/11/14 04:48:51;;;;;;;5.63;2.30;;;;;;;;;;5113443;28;20813;-60
2023/11/14 04:51:18;;;;;;;9.90;3.17;;;;;;;;;;5113758;28;20567;-60
2023/11/14 04:53:45;;;;;;;9.13;2.53;;;;;;;;;;5113626;28;20441;-60
2023/11/14 04:56:14;;;;;;;15.57;2.70;;;;;;;;;;5113672;28;20473;-60
2023/11/14 04:58:41;;;;;;;6.20;2.67;;;;;;;;;;5113455;28;20453;-60
2023/11/14 05:01:11;;;;;;;10.43;2.17;;;;;;;;;;5113413;28;20451;-60
2023/11/14 05:03:38;;;;;;;6.37;2.17;;;;;;;;;;5113578;28;20528;-60
2023/11/14 05:06:05;;;;;;;12.53;2.37;;;;;;;;;;5113500;28;20538;-60
2023/11/14 05:08:32;;;;;;;7.13;2.53;;;;;;;;;;5113350;28;20450;-60
2023/11/14 05:10:59;;;;;;;12.50;3.03;;;;;;;;;;5113406;28;20443;-60
2023/11/14 05:13:26;;;;;;;7.60;2.07;;;;;;;;;;5113389;28;20603;-60
2023/11/14 05:15:53;;;;;;;8.03;2.30;;;;;;;;;;5113213;28;20449;-60
2023/11/14 05:18:22;;;;;;;10.83;2.90;;;;;;;;;;5113426;28;20529;-59
2023/11/14 05:20:49;;;;;;;11.57;2.93;;;;;;;;;;5113368;28;20532;-60
2023/11/14 05:23:17;;;;;;;8.33;2.90;;;;;;;;;;5113276;28;20859;-60
2023/11/14 05:25:44;;;;;;;13.57;2.57;;;;;;;;;;5113257;28;20473;-60
2023/11/14 05:28:11;;;;;;;9.33;2.13;;;;;;;;;;5113114;28;20442;-60
2023/11/14 05:30:38;;;;;;;6.43;2.47;;;;;;;;;;5113039;28;20484;-60
2023/11/14 05:33:05;;;;;;;14.40;2.77;;;;;;;;;;5113305;28;20441;-60
2023/11/14 05:35:33;;;;;;;13.83;2.90;;;;;;;;;;5113284;28;20470;-59
2023/11/14 05:38:00;;;;;;;16.50;2.93;;;;;;;;;;5113093;28;20533;-60
2023/11/14 05:40:27;;;;;;;11.63;2.70;;;;;;;;;;5113356;28;20528;-59
2023/11/14 05:42:54;;;;;;;4.67;2.33;;;;;;;;;;5112881;28;20445;-61
2023/11/14 05:45:21;;;;;;;10.37;2.70;;;;;;;;;;5116805;28;20442;-60
2023/11/14 05:47:49;;;;;;;8.87;2.73;;;;;;;;;;5117145;28;20567;-61
2023/11/14 05:50:15;;;;;;;4.77;1.90;;;;;;;;;;5117068;28;20468;-61
2023/11/14 05:52:44;;;;;;;15.40;3.67;;;;;;;;;;5116881;28;20445;-59
2023/11/14 05:55:11;;;;;;;15.73;2.90;;;;;;;;;;5116793;28;20870;-61
2023/11/14 05:57:38;;;;;;;9.60;2.93;;;;;;;;;;5116644;28;21027;-59
2023/11/14 06:00:05;;;;;;;12.63;3.07;;;;;;;;;;5116857;28;20813;-61
2023/11/14 06:02:33;;;;;;;14.93;3.63;;;;;;;;;;5116764;28;20525;-61
2023/11/14 06:05:00;;;;;;;10.33;2.70;;;;;;;;;;5116656;28;20809;-59
2023/11/14 06:07:26;;;;;;;9.33;2.50;;;;;;;;;;5116500;28;20487;-61
2023/11/14 06:09:55;;;;;;;6.37;3.00;;;;;;;;;;5116325;28;20442;-61
2023/11/14 06:12:22;;;;;;;13.30;3.53;;;;;;;;;;5116433;28;20955;-61
2023/11/14 06:14:49;;;;;;;11.67;2.50;;;;;;;;;;5116545;28;20540;-60
2023/11/14 06:17:16;;;;;;;8.73;2.77;;;;;;;;;;5116704;28;20445;-59
2023/11/14 06:19:42;;;;;;;8.93;2.57;;;;;;;;;;5116422;28;20445;-59
2023/11/14 06:22:09;;;;;;;14.00;3.00;;;;;;;;;;5116127;28;20450;-59
2023/11/14 06:24:36;;;;;;;10.73;3.40;;;;;;;;;;5116143;28;20448;-59
2023/11/14 06:27:06;;;;;;;10.77;3.70;;;;;;;;;;5116338;28;20568;-59
2023/11/14 06:29:33;;;;;;;8.73;3.03;;;;;;;;;;5116259;28;20442;-59
2023/11/14 06:32:00;;;;;;;9.33;3.00;;;;;;;;;;5116202;28;20477;-59
2023/11/14 06:34:27;;;;;;;8.30;2.60;;;;;;;;;;5116109;27;20476;-59
2023/11/14 06:36:55;;;;;;;11.77;2.57;;;;;;;;;;5116183;28;20536;-59
2023/11/14 06:39:22;;;;;;;11.23;2.60;;;;;;;;;;5116011;28;20441;-59
2023/11/14 06:41:49;;;;;;;7.80;2.13;;;;;;;;;;5116104;28;20498;-59
2023/11/14 06:44:18;;;;;;;14.10;2.17;;;;;;;;;;5115741;28;20901;-59
2023/11/14 06:46:45;;;;;;;13.43;2.73;;;;;;;;;;5115975;28;20526;-59
2023/11/14 06:49:12;;;;;;;9.10;2.80;;;;;;;;;;5115846;28;20858;-59
2023/11/14 06:51:39;;;;;;;8.33;2.27;;;;;;;;;;5115595;28;20438;-59
2023/11/14 06:54:06;;;;;;;7.87;2.20;;;;;;;;;;5115815;28;20445;-62
2023/11/14 06:56:33;;;;;;;10.60;3.17;;;;;;;;;;5114991;28;20529;-59
2023/11/14 06:59:00;;;;;;;9.00;3.40;;;;;;;;;;5115437;28;20475;-59
2023/11/14 07:01:28;;;;;;;5.50;1.77;;;;;;;;;;5115601;28;20529;-59
2023/11/14 07:03:55;;;;;;;9.40;2.73;;;;;;;;;;5115425;28;20528;-59
2023/11/14 07:06:22;;;;;;;9.93;2.43;;;;;;;;;;5115194;28;20888;-59
2023/11/14 07:08:50;;;;;;;6.90;2.20;;;;;;;;;;5115505;28;20533;-60
2023/11/14 07:11:16;;;;;;;10.50;2.33;;;;;;;;;;5115482;28;20468;-59
2023/11/14 07:13:44;;;;;;;12.80;2.17;;;;;;;;;;5115323;28;20448;-60
2023/11/14 07:16:11;;;;;;;11.23;2.73;;;;;;;;;;5115319;28;20956;-59
2023/11/14 07:18:40;;;;;;;12.60;2.77;;;;;;;;;;5115085;28;20959;-59
2023/11/14 07:21:07;;;;;;;7.93;2.70;;;;;;;;;;5115105;28;20442;-60
2023/11/14 07:23:34;;;;;;;12.90;2.87;;;;;;;;;;5114985;28;20503;-60
2023/11/14 07:26:01;;;;;;;9.30;2.33;;;;;;;;;;5115017;28;20442;-60
2023/11/14 07:28:28;;;;;;;9.90;2.50;;;;;;;;;;5114916;28;20446;-59
2023/11/14 07:30:56;;;;;;;9.80;3.33;;;;;;;;;;5114843;28;20541;-59
2023/11/14 07:33:24;;;;;;;16.80;3.13;;;;;;;;;;5114641;28;20446;-59
2023/11/14 07:35:52;;;;;;;11.93;2.77;;;;;;;;;;5114882;28;20453;-60
2023/11/14 07:38:19;;;;;;;17.13;2.83;;;;;;;;;;5114674;28;20520;-59
2023/11/14 07:40:46;;;;;;;8.20;2.90;;;;;;;;;;5114862;28;20442;-60
2023/11/14 07:43:13;;;;;;;6.77;2.37;;;;;;;;;;5114506;28;20861;-59
2023/11/14 07:45:40;;;;;;;6.03;2.27;;;;;;;;;;5114637;28;20476;-59
2023/11/14 07:48:08;;;;;;;18.03;3.07;;;;;;;;;;5114259;28;20477;-59
2023/11/14 07:50:35;;;;;;;9.30;2.03;;;;;;;;;;5114734;28;20442;-59
2023/11/14 07:53:04;;;;;;;10.00;2.80;;;;;;;;;;5114535;28;20525;-59
2023/11/14 07:55:30;;;;;;;15.80;3.20;;;;;;;;;;5114230;28;20445;-59
2023/11/14 07:57:57;;;;;;;4.87;1.93;;;;;;;;;;5114317;28;20873;-59
2023/11/14 08:00:25;;;;;;;13.77;3.40;;;;;;;;;;5114552;27;20481;-59
2023/11/14 08:02:51;;;;;;;7.77;2.30;;;;;;;;;;5114377;28;20446;-61
2023/11/14 08:05:18;;;;;;;9.17;2.20;;;;;;;;;;5114194;28;20529;-59
2023/11/14 08:07:45;;;;;;;5.37;2.40;;;;;;;;;;5114063;28;20487;-62
2023/11/14 08:10:14;;;;;;;9.57;3.77;;;;;;;;;;5114003;28;20849;-60
2023/11/14 08:12:42;;;;;;;8.57;2.20;;;;;;;;;;5114080;28;20437;-60
2023/11/14 08:15:09;;;;;;;6.37;2.10;;;;;;;;;;5113871;28;20442;-60
2023/11/14 08:17:36;;;;;;;10.27;2.10;;;;;;;;;;5113897;28;20441;-59
2023/11/14 08:20:04;;;;;;;6.80;2.10;;;;;;;;;;5113766;28;20550;-59
2023/11/14 08:22:30;;;;;;;10.33;2.40;;;;;;;;;;5113732;28;20453;-59
2023/11/14 08:24:57;;;;;;;9.03;2.30;;;;;;;;;;5113837;28;20442;-59
2023/11/14 08:27:26;;;;;;;15.53;3.70;;;;;;;;;;5113541;28;20568;-60
2023/11/14 08:29:53;;;;;;;11.10;3.90;;;;;;;;;;5113876;28;20484;-60
2023/11/14 08:32:20;;;;;;;6.83;2.57;;;;;;;;;;5113812;28;20587;-60
2023/11/14 08:34:48;;;;;;;5.50;2.33;;;;;;;;;;5113588;28;20529;-59
2023/11/14 08:37:15;;;;;;;9.33;2.60;;;;;;;;;;5113663;28;20528;-60
2023/11/14 08:39:42;;;;;;;9.83;2.50;;;;;;;;;;5113632;28;20897;-59
2023/11/14 08:42:11;;;;;;;10.67;3.40;;;;;;;;;;5113514;28;20524;-62
2023/11/14 08:44:40;;;;;;;6.53;2.47;;;;;;;;;;5113487;28;20518;-62
2023/11/14 08:47:07;;;;;;;11.27;3.33;;;;;;;;;;5113234;28;20554;-62
2023/11/14 08:49:35;;;;;;;6.83;2.40;;;;;;;;;;5113508;28;20429;-60
2023/11/14 08:52:02;;;;;;;7.43;3.00;;;;;;;;;;5113455;28;20496;-63
2023/11/14 08:54:29;;;;;;;14.07;3.20;;;;;;;;;;5113458;28;20537;-63
2023/11/14 08:56:57;;;;;;;13.73;3.27;;;;;;;;;;5113558;28;20537;-63
2023/11/14 08:59:24;;;;;;;11.10;2.17;;;;;;;;;;5113429;28;20444;-63
2023/11/14 09:01:52;;;;;;;8.27;2.83;;;;;;;;;;5113455;28;20438;-63
2023/11/14 09:04:19;;;;;;;11.33;2.57;;;;;;;;;;5113437;28;20540;-65
2023/11/14 09:06:46;;;;;;;14.33;3.03;;;;;;;;;;5113687;28;20872;-66
2023/11/14 09:09:14;;;;;;;8.57;2.10;;;;;;;;;;5113034;28;20511;-62
2023/11/14 09:11:41;;;;;;;8.47;2.60;;;;;;;;;;5113495;28;20450;-63
2023/11/14 09:14:08;;;;;;;8.33;2.80;;;;;;;;;;5113399;28;20442;-64
2023/11/14 09:16:35;;;;;;;11.20;2.60;;;;;;;;;;5113322;28;20453;-60
2023/11/14 09:19:04;;;;;;;10.73;2.13;;;;;;;;;;5114891;28;20445;-62
2023/11/14 09:21:31;;;;;;;9.60;2.87;;;;;;;;;;5117370;28;20448;-61
2023/11/14 09:23:58;;;;;;;15.07;3.40;;;;;;;;;;5117249;28;20449;-62
2023/11/14 09:26:25;;;;;;;10.73;2.23;;;;;;;;;;5117464;28;20480;-61
2023/11/14 09:28:52;;;;;;;10.20;2.47;;;;;;;;;;5117277;28;20563;-62
2023/11/14 09:31:19;;;;;;;10.90;2.43;;;;;;;;;;5117245;28;20463;-61
2023/11/14 09:33:46;;;;;;;9.20;2.60;;;;;;;;;;5117177;28;20821;-63
2023/11/14 09:36:15;;;;;;;7.20;2.20;;;;;;;;;;5116929;28;20502;-60
2023/11/14 09:38:42;;;;;;;8.33;1.90;;;;;;;;;;5117080;28;20448;-61
2023/11/14 09:41:09;;;;;;;8.00;2.50;;;;;;;;;;5117071;28;20540;-62
2023/11/14 09:43:36;;;;;;;15.17;2.57;;;;;;;;;;5116769;28;20469;-64
2023/11/14 09:46:04;;;;;;;6.63;2.13;;;;;;;;;;5116859;28;20525;-65
2023/11/14 09:48:32;;;;;;;9.47;2.20;;;;;;;;;;5116697;28;20599;-59
2023/11/14 09:51:01;;;;;;;8.57;2.60;;;;;;;;;;5116646;28;20445;-60
2023/11/14 09:53:32;;;;;;;7.53;2.80;;;;;;;;;;5116903;28;20449;-62
2023/11/14 09:55:59;;;;;;;8.77;2.60;;;;;;;;;;5116678;28;20472;-64
2023/11/14 09:58:26;;;;;;;6.57;2.40;;;;;;;;;;5116512;28;20570;-63
2023/11/14 10:00:53;;;;;;;8.60;2.30;;;;;;;;;;5116532;28;20498;-62
2023/11/14 10:03:21;;;;;;;6.37;2.17;;;;;;;;;;5116479;28;20867;-62
2023/11/14 10:05:48;;;;;;;11.63;2.23;;;;;;;;;;5116620;28;20442;-60
2023/11/14 10:08:16;;;;;;;4.37;2.00;;;;;;;;;;5116498;28;20572;-60
2023/11/14 10:11:04;;;;;;;9.87;2.17;;;;;;;;;;5116607;28;20484;-63
2023/11/14 10:13:30;;;;;;;11.80;2.67;;;;;;;;;;5116290;28;20497;-61
2023/11/14 10:16:12;;;;;;;5.80;1.70;;;;;;;;;;5116337;28;20437;-60
2023/11/14 10:18:38;;;;;;;9.20;2.40;;;;;;;;;;5116443;28;20567;-61
2023/11/14 10:21:06;;;;;;;9.43;2.10;;;;;;;;;;5116366;28;20879;-62
2023/11/14 10:23:33;;;;;;;13.87;2.50;;;;;;;;;;5116118;28;20576;-61
2023/11/14 10:26:08;;;;;;;7.67;2.40;;;;;;;;;;5116192;28;20453;-61
2023/11/14 10:28:35;;;;;;;10.50;2.07;;;;;;;;;;5115936;28;20480;-62
2023/11/14 10:31:02;;;;;;;8.40;2.80;;;;;;;;;;5114861;28;20885;-61
2023/11/14 10:33:40;;;;;;;6.47;2.77;;;;;;;;;;5115979;28;21000;-63
2023/11/14 10:36:09;;;;;;;8.13;2.07;;;;;;;;;;5116053;28;20872;-59
2023/11/14 10:38:36;;;;;;;4.00;2.20;;;;;;;;;;5115797;28;20442;-64
2023/11/14 10:41:03;;;;;;;5.63;1.90;;;;;;;;;;5115714;28;20445;-60
2023/11/14 10:43:32;;;;;;;9.83;2.00;;;;;;;;;;5115739;28;20469;-65
2023/11/14 10:46:00;;;;;;;4.83;1.83;;;;;;;;;;5115884;28;20532;-63
2023/11/14 10:48:27;;;;;;;8.10;2.27;;;;;;;;;;5115623;28;20485;-63
2023/11/14 10:50:54;;;;;;;8.90;3.33;;;;;;;;;;5115449;28;21017;-62
2023/11/14 10:53:22;;;;;;;8.23;2.13;;;;;;;;;;5115334;28;20442;-62
2023/11/14 10:55:51;;;;;;;8.63;2.30;;;;;;;;;;5115738;28;20456;-58
2023/11/14 10:58:19;;;;;;;7.07;2.63;;;;;;;;;;5115774;28;20445;-62
2023/11/14 11:00:48;;;;;;;5.00;2.30;;;;;;;;;;5115586;28;20536;-63
2023/11/14 11:03:15;;;;;;;9.80;3.23;;;;;;;;;;5115325;28;21047;-62
2023/11/14 11:05:43;;;;;;;10.83;2.90;;;;;;;;;;5115281;28;20876;-63
2023/11/14 11:08:12;;;;;;;9.30;2.43;;;;;;;;;;5115427;28;20501;-62
2023/11/14 11:10:40;;;;;;;5.13;2.47;;;;;;;;;;5115203;28;20587;-61
2023/11/14 11:13:09;;;;;;;5.13;1.80;;;;;;;;;;5115281;28;20532;-62
2023/11/14 11:15:43;;;;;;;8.23;2.87;;;;;;;;;;5115178;28;20528;-61
2023/11/14 11:18:12;;;;;;;7.33;1.93;;;;;;;;;;5115035;28;20437;-61
2023/11/14 11:20:39;;;;;;;10.43;2.90;;;;;;;;;;5114830;28;20473;-62
2023/11/14 11:23:08;;;;;;;9.53;2.63;;;;;;;;;;5114992;28;20528;-62
2023/11/14 11:25:36;;;;;;;4.87;1.43;;;;;;;;;;5114985;28;20441;-62
2023/11/14 11:28:21;;;;;;;5.87;2.10;;;;;;;;;;5114801;28;20569;-63
2023/11/14 11:31:07;;;;;;;12.90;3.50;;;;;;;;;;5114574;28;20528;-60
2023/11/14 11:33:36;;;;;;;5.13;2.23;;;;;;;;;;5114929;28;20438;-61
2023/11/14 11:36:25;;;;;;;7.33;3.20;;;;;;;;;;5114793;28;20503;-62
2023/11/14 11:38:55;;;;;;;6.17;2.27;;;;;;;;;;5114639;27;20537;-60
2023/11/14 11:41:23;;;;;;;6.60;2.37;;;;;;;;;;5114287;28;20442;-60
2023/11/14 11:43:59;;;;;;;6.93;2.03;;;;;;;;;;5114326;28;20491;-60
2023/11/14 11:46:42;;;;;;;8.53;2.70;;;;;;;;;;5114378;28;21016;-61
2023/11/14 11:49:27;;;;;;;4.30;1.57;;;;;;;;;;5114405;28;20483;-60
2023/11/14 11:52:10;;;;;;;12.13;2.03;;;;;;;;;;5114709;28;20449;-59
2023/11/14 11:54:39;;;;;;;5.43;1.80;;;;;;;;;;5114495;28;20473;-59
2023/11/14 11:57:09;;;;;;;4.13;2.73;;;;;;;;;;5114454;28;20533;-60
2023/11/14 11:59:51;;;;;;;6.83;1.87;;;;;;;;;;5114231;28;20446;-61
2023/11/14 12:02:23;;;;;;;8.33;2.00;;;;;;;;;;5114112;28;20520;-62
2023/11/14 12:04:52;;;;;;;2.70;1.40;;;;;;;;;;5114500;28;20445;-61
2023/11/14 12:07:20;;;;;;;10.83;1.70;;;;;;;;;;5114164;28;20448;-61
2023/11/14 12:09:47;;;;;;;3.90;1.50;;;;;;;;;;5114182;28;20472;-59
2023/11/14 12:12:14;;;;;;;5.77;1.93;;;;;;;;;;5114114;28;20530;-59
2023/11/14 12:14:42;;;;;;;4.70;1.57;;;;;;;;;;5114064;28;20472;-61
2023/11/14 12:17:09;;;;;;;2.63;1.47;;;;;;;;;;5113943;28;20437;-59
2023/11/14 12:19:36;;;;;;;5.00;1.97;;;;;;;;;;5113243;28;20450;-59
2023/11/14 12:22:03;;;;;;;5.37;2.00;;;;;;;;;;5113409;28;20937;-59
2023/11/14 12:24:32;;;;;;;3.40;1.60;;;;;;;;;;5113833;28;20445;-59
2023/11/14 12:26:59;;;;;;;5.40;1.93;;;;;;;;;;5113603;28;20468;-58
2023/11/14 12:29:25;;;;;;;7.33;2.43;;;;;;;;;;5113623;28;20481;-59
2023/11/14 12:31:54;;;;;;;6.83;1.97;;;;;;;;;;5113964;28;20539;-59
2023/11/14 12:34:24;;;;;;;4.63;1.90;;;;;;;;;;5113660;28;20441;-59
2023/11/14 12:36:51;;;;;;;6.43;1.80;;;;;;;;;;5113738;28;20874;-59
2023/11/14 12:39:19;;;;;;;7.30;2.10;;;;;;;;;;5113588;28;20537;-59
2023/11/14 12:41:47;;;;;;;6.97;2.10;;;;;;;;;;5113481;28;20937;-60
2023/11/14 12:44:16;;;;;;;7.70;1.80;;;;;;;;;;5113423;28;20897;-60
2023/11/14 12:46:43;;;;;;;5.67;1.50;;;;;;;;;;5113521;28;20917;-61
2023/11/14 12:49:10;;;;;;;4.70;1.70;;;;;;;;;;5113377;28;20580;-56
2023/11/14 12:51:37;;;;;;;2.50;1.37;;;;;;;;;;5113568;28;20453;-58
2023/11/14 12:54:04;;;;;;;3.53;1.90;;;;;;;;;;5112742;28;20537;-63
2023/11/14 12:56:31;;;;;;;3.73;1.33;;;;;;;;;;5113574;28;20537;-62
2023/11/14 12:59:00;;;;;;;8.90;1.57;;;;;;;;;;5113342;28;20449;-64
2023/11/14 13:01:27;;;;;;;7.67;1.73;;;;;;;;;;5113411;28;20437;-61
2023/11/14 13:03:54;;;;;;;3.53;2.27;;;;;;;;;;5113356;28;20444;-59
2023/11/14 13:06:22;;;;;;;3.00;1.60;;;;;;;;;;5113182;28;20498;-60
2023/11/14 13:08:49;;;;;;;3.00;1.57;;;;;;;;;;5113052;28;20473;-64
2023/11/14 13:11:16;;;;;;;6.50;2.43;;;;;;;;;;5113522;28;20469;-60
2023/11/14 13:13:43;;;;;;;6.20;2.67;;;;;;;;;;5113212;28;20956;-61
2023/11/14 13:16:12;;;;;;;7.70;3.93;;;;;;;;;;5113053;28;20933;-59
2023/11/14 13:18:39;;;;;;;7.20;3.20;;;;;;;;;;5113139;28;20445;-58
2023/11/14 13:21:06;;;;;;;9.77;2.87;;;;;;;;;;5113104;28;20449;-60
2023/11/14 13:23:33;;;;;;;3.77;2.00;;;;;;;;;;5112910;28;20449;-60
2023/11/14 13:26:00;;;;;;;7.77;2.00;;;;;;;;;;5112982;28;20445;-58
2023/11/14 13:28:27;;;;;;;8.70;2.50;;;;;;;;;;5112903;28;20476;-59
2023/11/14 13:30:54;;;;;;;12.40;2.73;;;;;;;;;;5112908;28;20992;-58
2023/11/14 13:33:22;;;;;;;6.30;2.37;;;;;;;;;;5113030;28;20529;-59
2023/11/14 13:35:49;;;;;;;7.87;3.93;;;;;;;;;;5112873;28;20446;-59
2023/11/14 13:38:16;;;;;;;8.33;3.30;;;;;;;;;;5113053;28;20475;-60
2023/11/14 13:40:44;;;;;;;12.00;4.10;;;;;;;;;;5112982;28;20801;-60
2023/11/14 13:43:12;;;;;;;7.63;2.53;;;;;;;;;;5112655;28;20624;-59
2023/11/14 13:45:40;;;;;;;5.10;2.30;;;;;;;;;;5112773;28;20438;-61
2023/11/14 13:48:08;;;;;;;6.57;3.90;;;;;;;;;;5112656;28;20442;-60
2023/11/14 13:50:36;;;;;;;10.73;2.10;;;;;;;;;;5112792;28;20446;-58
2023/11/14 13:53:04;;;;;;;15.40;3.03;;;;;;;;;;5113096;28;20511;-59
2023/11/14 13:55:31;;;;;;;5.33;1.80;;;;;;;;;;5112918;28;20441;-60
2023/11/14 13:57:58;;;;;;;11.57;2.80;;;;;;;;;;5112842;28;20583;-59
2023/11/14 14:00:26;;;;;;;5.43;1.70;;;;;;;;;;5112771;28;20511;-59
2023/11/14 14:02:53;;;;;;;12.33;4.40;;;;;;;;;;5112741;28;20446;-59
2023/11/14 14:05:20;;;;;;;9.87;2.27;;;;;;;;;;5115145;28;20793;-59
2023/11/14 14:07:48;;;;;;;5.90;2.50;;;;;;;;;;5115210;28;20449;-59
2023/11/14 14:10:17;;;;;;;8.07;2.57;;;;;;;;;;5114877;28;20484;-59
2023/11/14 14:12:45;;;;;;;4.90;2.40;;;;;;;;;;5114935;28;20448;-59
2023/11/14 14:15:12;;;;;;;7.93;2.63;;;;;;;;;;5114865;28;20448;-59
2023/11/14 14:17:40;;;;;;;11.70;2.80;;;;;;;;;;5114586;28;20452;-59
2023/11/14 14:20:10;;;;;;;7.07;2.90;;;;;;;;;;5114795;28;20839;-59
2023/11/14 14:22:37;;;;;;;10.57;3.00;;;;;;;;;;5115785;28;20874;-58
2023/11/14 14:25:06;;;;;;;10.33;4.10;;;;;;;;;;5116234;28;20519;-59
2023/11/14 14:27:33;;;;;;;11.47;2.97;;;;;;;;;;5116150;28;20459;-59
2023/11/14 14:30:02;;;;;;;10.47;3.07;;;;;;;;;;5115914;28;20856;-59
2023/11/14 14:32:30;;;;;;;7.10;2.37;;;;;;;;;;5116440;28;20492;-59
2023/11/14 14:34:58;;;;;;;6.37;1.77;;;;;;;;;;5116027;28;20895;-59
2023/11/14 14:37:25;;;;;;;3.70;2.40;;;;;;;;;;5115952;28;20442;-59
2023/11/14 14:39:52;;;;;;;9.80;2.10;;;;;;;;;;5115978;28;20441;-59
2023/11/14 14:42:20;;;;;;;10.40;2.70;;;;;;;;;;5115855;28;20532;-59